Anderson Island, Washington
Current Conditions -  °F | °C
As of 1:58 AM on Friday 31 Oct 2014 (Local Time) from KGRF Reporting Station
Light Rain Light Rain  
Wind Chill: 52°   Ceiling: 4400
Heat Index: 52°   Visibility: 6mi
Dew Point: 52°   Wind: 3mph
Humidity: 99%   Direction: 150°SSE
Pressure: 29.76"   Gusts: NA
Location:  47.16°N, 122.7°W
Report Text: KGRF 310858Z AUTO 15003KT 6SM -RA BR OVC044 11/11 A2976 RMK AO2 DZB0816E0821 SLP081 P0005 60023 T01100109 57008 $
Loading
Personal Weather Stations






























Interactive Weather Map
Tropical Storm Tracking
New forecast layout! Learn more

10-Day Weather Forecast

Advertisements
Track Severe Weather on mobile